Time;durP1;ratioP1;P1;durP2;ratioP2;P2;SDS_P1;SDS_P2;PMS_P1;PMS_P2;Temp;Humidity;BMP_temperature;BMP_pressure;BME280_temperature;BME280_humidity;BME280_pressure;Samples;Min_cycle;Max_cycle;Signal;HPM_P1;HPM_P2
2023/11/09 00:00:56;;;;;;;3.83;0.95;;;8.70;99.90;;;;;;15572297;22;20035;-34
2023/11/09 00:07:36;;;;;;;;;;;8.70;99.90;;;;;;15550913;22;20120;-34
2023/11/09 00:14:28;;;;;;;4.75;1.20;;;8.80;99.90;;;;;;15573357;22;19926;-33
2023/11/09 00:21:11;;;;;;;2.63;0.93;;;8.70;99.90;;;;;;15574853;22;20032;-34
2023/11/09 00:28:00;;;;;;;3.00;1.10;;;8.70;99.90;;;;;;15575641;22;20019;-34
2023/11/09 00:34:40;;;;;;;4.53;1.50;;;8.70;99.90;;;;;;15578852;22;20062;-33
2023/11/09 00:41:24;;;;;;;5.07;1.37;;;8.70;99.90;;;;;;15552906;22;20319;-34
2023/11/09 00:48:07;;;;;;;2.47;1.13;;;8.80;99.90;;;;;;15557679;22;20019;-34
2023/11/09 00:54:43;;;;;;;2.33;1.13;;;8.80;99.90;;;;;;15575732;22;20353;-34
2023/11/09 01:01:28;;;;;;;4.37;1.10;;;8.80;99.90;;;;;;15577176;22;20134;-34
2023/11/09 01:08:15;;;;;;;2.85;0.82;;;8.80;99.90;;;;;;15574208;22;20027;-33
2023/11/09 01:14:45;;;;;;;3.50;1.02;;;8.90;99.90;;;;;;15577062;22;20034;-34
2023/11/09 01:21:21;;;;;;;2.40;1.00;;;8.80;99.90;;;;;;15554288;22;20024;-34
2023/11/09 01:27:59;;;;;;;3.35;1.20;;;8.80;99.90;;;;;;15576608;22;20142;-34
2023/11/09 01:34:36;;;;;;;2.80;1.05;;;8.80;99.90;;;;;;15575067;22;20030;-34
2023/11/09 01:41:16;;;;;;;3.10;1.17;;;8.80;99.90;;;;;;15577134;22;20462;-34
2023/11/09 01:47:59;;;;;;;3.15;1.25;;;8.90;99.90;;;;;;15552467;22;20027;-34
2023/11/09 01:54:35;;;;;;;2.50;1.00;;;8.80;99.90;;;;;;15553686;22;20391;-34
2023/11/09 02:01:16;;;;;;;3.22;1.38;;;8.90;99.90;;;;;;15576364;22;20426;-34
2023/11/09 02:07:58;;;;;;;2.50;1.20;;;8.90;99.90;;;;;;15576864;22;20365;-34
2023/11/09 02:14:37;;;;;;;2.70;1.10;;;8.90;99.90;;;;;;15577998;22;20449;-34
2023/11/09 02:21:18;;;;;;;4.83;1.40;;;8.90;99.90;;;;;;15572267;22;20027;-34
2023/11/09 02:28:12;;;;;;;3.03;0.93;;;8.90;99.90;;;;;;15575315;22;20333;-34
2023/11/09 02:34:56;;;;;;;4.13;0.90;;;8.90;99.90;;;;;;15575798;22;20078;-34
2023/11/09 02:41:40;;;;;;;1.95;0.82;;;8.90;99.90;;;;;;15580070;22;20098;-33
2023/11/09 02:48:22;;;;;;;1.90;0.80;;;8.90;99.90;;;;;;15579056;22;20026;-34
2023/11/09 02:55:06;;;;;;;1.88;0.80;;;8.90;99.90;;;;;;15579122;22;20401;-34
2023/11/09 03:01:58;;;;;;;4.38;0.85;;;8.90;99.90;;;;;;15557125;22;20020;-34
2023/11/09 03:08:31;;;;;;;2.47;1.02;;;8.90;99.90;;;;;;15576792;22;20357;-34
2023/11/09 03:15:13;;;;;;;2.95;0.93;;;8.90;99.90;;;;;;15577772;22;20143;-34
2023/11/09 03:21:54;;;;;;;2.00;0.90;;;9.00;99.90;;;;;;15579311;22;20023;-34
2023/11/09 03:28:41;;;;;;;1.83;0.90;;;9.00;99.90;;;;;;15579439;22;20028;-33
2023/11/09 03:35:25;;;;;;;2.55;0.93;;;8.90;99.90;;;;;;15559736;22;20046;-34
2023/11/09 03:42:11;;;;;;;2.05;0.90;;;9.00;99.90;;;;;;15579588;22;20043;-34
2023/11/09 03:48:56;;;;;;;2.58;1.00;;;9.00;99.90;;;;;;15580973;22;20031;-34
2023/11/09 03:55:38;;;;;;;1.50;0.75;;;9.00;99.90;;;;;;15580131;22;20028;-34
2023/11/09 04:02:26;;;;;;;1.77;0.75;;;9.00;99.90;;;;;;15578572;22;20020;-33
2023/11/09 04:09:05;;;;;;;2.30;0.97;;;9.00;99.90;;;;;;15580225;22;20033;-34
2023/11/09 04:16:02;;;;;;;2.45;0.77;;;9.00;99.90;;;;;;15577912;22;20019;-34
2023/11/09 04:22:47;;;;;;;4.13;1.10;;;8.90;99.90;;;;;;15552977;22;20028;-34
2023/11/09 04:29:26;;;;;;;5.65;1.17;;;8.90;99.90;;;;;;15579817;22;20024;-35
2023/11/09 04:36:17;;;;;;;1.67;0.80;;;8.90;99.90;;;;;;15579259;22;20026;-34
2023/11/09 04:42:51;;;;;;;1.80;0.88;;;8.80;99.90;;;;;;15577842;22;20020;-34
2023/11/09 04:49:31;;;;;;;2.38;0.90;;;8.90;99.90;;;;;;15576826;22;20393;-33
2023/11/09 04:56:07;;;;;;;2.00;0.70;;;8.80;99.90;;;;;;15577223;22;20019;-34
2023/11/09 05:09:46;;;;;;;3.60;0.98;;;9.00;99.90;;;;;;15573597;22;20098;-34
2023/11/09 05:16:20;;;;;;;2.75;0.98;;;9.00;99.90;;;;;;15577409;22;20358;-33
2023/11/09 05:23:05;;;;;;;4.15;0.95;;;9.10;99.90;;;;;;15576107;22;20028;-34
2023/11/09 05:29:52;;;;;;;4.57;1.05;;;9.00;99.90;;;;;;15578757;22;20101;-34
2023/11/09 05:36:28;;;;;;;2.95;0.90;;;9.00;99.90;;;;;;15553289;22;20036;-34
2023/11/09 05:43:11;;;;;;;2.17;1.00;;;9.00;99.90;;;;;;15574260;22;20024;-34
2023/11/09 05:50:00;;;;;;;4.70;1.00;;;9.00;99.90;;;;;;15577498;22;20117;-34
2023/11/09 05:56:41;;;;;;;3.42;1.10;;;9.00;99.90;;;;;;15555302;22;20026;-34
2023/11/09 06:03:24;;;;;;;1.45;0.85;;;9.00;99.90;;;;;;15576400;22;20374;-34
2023/11/09 06:10:09;;;;;;;5.70;1.38;;;9.00;99.90;;;;;;15575773;22;20082;-35
2023/11/09 06:16:42;;;;;;;2.22;1.02;;;9.00;99.90;;;;;;15582327;22;20042;-35
2023/11/09 06:23:17;;;;;;;2.40;1.00;;;9.10;99.90;;;;;;15569944;22;20028;-34
2023/11/09 06:29:56;;;;;;;1.75;0.90;;;9.10;99.90;;;;;;15559975;22;20055;-34
2023/11/09 06:36:33;;;;;;;4.88;1.10;;;8.90;99.90;;;;;;15562444;22;20019;-34
2023/11/09 06:43:09;;;;;;;1.90;0.85;;;8.90;99.90;;;;;;15562398;22;20020;-34
2023/11/09 06:49:50;;;;;;;1.60;1.00;;;9.00;99.90;;;;;;15579346;22;20466;-34
2023/11/09 06:56:41;;;;;;;2.00;0.98;;;9.00;99.90;;;;;;15581673;22;20128;-34
2023/11/09 07:03:16;;;;;;;2.28;1.10;;;8.90;99.90;;;;;;15558149;22;20035;-34
2023/11/09 07:09:45;;;;;;;1.58;0.98;;;8.90;99.90;;;;;;15582696;22;20469;-33
2023/11/09 07:16:15;;;;;;;3.92;1.30;;;9.00;99.90;;;;;;15579721;22;20020;-34
2023/11/09 07:22:56;;;;;;;1.80;1.17;;;9.00;99.90;;;;;;15581949;22;20094;-35
2023/11/09 07:29:20;;;;;;;1.30;0.77;;;9.00;99.90;;;;;;15580884;22;20027;-34
2023/11/09 07:35:40;;;;;;;1.48;0.90;;;9.10;99.90;;;;;;15580174;22;20019;-34
2023/11/09 07:42:07;;;;;;;1.90;0.77;;;9.20;99.90;;;;;;15578469;22;20038;-33
2023/11/09 07:48:31;;;;;;;2.65;1.10;;;9.30;99.90;;;;;;15578236;22;20026;-34
2023/11/09 07:55:07;;;;;;;2.37;1.23;;;9.40;99.90;;;;;;15579358;22;20016;-33
2023/11/09 08:01:35;;;;;;;3.08;1.02;;;9.50;99.90;;;;;;15555092;22;20090;-34
2023/11/09 08:08:10;;;;;;;3.25;0.90;;;9.50;99.90;;;;;;15580610;22;20142;-34
2023/11/09 08:14:45;;;;;;;1.95;0.80;;;9.50;99.90;;;;;;15557992;22;20117;-34
2023/11/09 08:21:25;;;;;;;1.80;0.80;;;9.40;99.90;;;;;;15580555;22;20393;-34
2023/11/09 08:27:56;;;;;;;0.88;0.60;;;9.40;99.90;;;;;;15579437;22;20108;-34
2023/11/09 08:34:30;;;;;;;1.85;0.70;;;9.40;99.90;;;;;;15554752;22;20020;-33
2023/11/09 08:41:06;;;;;;;2.58;0.90;;;9.40;99.90;;;;;;15577599;22;20027;-34
2023/11/09 08:47:52;;;;;;;5.55;1.00;;;9.40;99.90;;;;;;15576113;22;20015;-34
2023/11/09 08:54:24;;;;;;;1.80;0.60;;;9.40;99.90;;;;;;15577731;22;20024;-34
2023/11/09 09:00:46;;;;;;;1.58;0.70;;;9.30;99.90;;;;;;15576552;22;20346;-34
2023/11/09 09:07:06;;;;;;;2.65;0.80;;;9.40;99.90;;;;;;15576732;22;20032;-34
2023/11/09 09:13:28;;;;;;;1.90;0.77;;;9.30;99.90;;;;;;15576800;22;20335;-35
2023/11/09 09:19:58;;;;;;;0.93;0.68;;;9.30;99.90;;;;;;15578832;22;20022;-34
2023/11/09 09:26:22;;;;;;;1.77;1.02;;;9.30;99.90;;;;;;15574617;22;20129;-34
2023/11/09 09:32:50;;;;;;;1.42;0.73;;;9.30;99.90;;;;;;15578578;22;20465;-34
2023/11/09 09:39:22;;;;;;;3.03;0.60;;;9.40;99.90;;;;;;15576227;22;20019;-34
2023/11/09 09:45:49;;;;;;;1.80;0.70;;;9.30;99.90;;;;;;15575556;22;20561;-34
2023/11/09 09:52:22;;;;;;;1.00;0.50;;;9.40;99.90;;;;;;15579205;22;20465;-34
2023/11/09 09:59:01;;;;;;;1.05;0.50;;;9.40;99.90;;;;;;15577746;22;20435;-34
2023/11/09 10:05:38;;;;;;;0.73;0.40;;;9.40;99.90;;;;;;15577466;22;20031;-34
2023/11/09 10:12:13;;;;;;;0.50;0.50;;;9.30;99.90;;;;;;15577786;22;20447;-34
2023/11/09 10:18:52;;;;;;;1.25;0.63;;;9.30;99.90;;;;;;15580108;22;20020;-33
2023/11/09 10:25:27;;;;;;;1.42;0.70;;;9.30;99.90;;;;;;15575886;22;20109;-33
2023/11/09 10:31:54;;;;;;;;;;;9.30;99.90;;;;;;15579989;22;20020;-34
2023/11/09 10:38:29;;;;;;;2.25;0.63;;;9.40;99.90;;;;;;15554925;22;19916;-34
2023/11/09 10:44:55;;;;;;;0.77;0.55;;;9.40;99.90;;;;;;15566247;22;20023;-34
2023/11/09 10:51:33;;;;;;;1.50;0.70;;;9.40;99.90;;;;;;15576657;22;20023;-34
2023/11/09 10:57:55;;;;;;;0.47;0.40;;;9.40;99.90;;;;;;15577110;22;20030;-34
2023/11/09 11:04:18;;;;;;;0.85;0.40;;;9.50;99.90;;;;;;15581292;22;20027;-33
2023/11/09 11:10:51;;;;;;;0.68;0.40;;;9.60;99.90;;;;;;15557462;22;20027;-34
2023/11/09 11:17:38;;;;;;;1.08;0.50;;;9.60;99.90;;;;;;15580198;22;20401;-34
2023/11/09 11:24:32;;;;;;;0.98;0.40;;;9.70;99.90;;;;;;15561004;22;20362;-34
2023/11/09 11:31:00;;;;;;;0.88;0.50;;;9.80;99.90;;;;;;15550953;22;20023;-34
2023/11/09 11:37:37;;;;;;;1.75;0.45;;;9.80;99.90;;;;;;15556370;22;20019;-34
2023/11/09 11:44:29;;;;;;;1.52;0.50;;;9.80;99.90;;;;;;15581482;22;20038;-34
2023/11/09 11:51:21;;;;;;;2.78;0.47;;;9.90;99.90;;;;;;15576860;22;20070;-34
2023/11/09 11:58:11;;;;;;;4.32;0.80;;;10.00;99.90;;;;;;15557387;22;20020;-34
2023/11/09 12:04:50;;;;;;;2.33;1.13;;;10.10;99.90;;;;;;15581542;22;20365;-34
2023/11/09 12:11:55;;;;;;;2.83;0.82;;;10.10;99.90;;;;;;15577992;22;20588;-33
2023/11/09 12:18:36;;;;;;;1.60;0.60;;;10.10;99.90;;;;;;15579095;22;20030;-33
2023/11/09 12:25:26;;;;;;;2.55;1.00;;;10.30;99.90;;;;;;15580808;22;20063;-34
2023/11/09 12:32:15;;;;;;;3.58;0.68;;;10.30;99.90;;;;;;15582719;22;20020;-34
2023/11/09 12:38:56;;;;;;;3.35;0.80;;;10.30;99.90;;;;;;15576509;22;20141;-34
2023/11/09 12:45:38;;;;;;;4.47;0.60;;;10.30;99.90;;;;;;15555888;22;20095;-34
2023/11/09 12:52:10;;;;;;;4.75;1.00;;;10.30;99.90;;;;;;15578845;22;20059;-35
2023/11/09 12:58:57;;;;;;;1.90;0.73;;;10.30;99.90;;;;;;15578662;22;20583;-34
2023/11/09 13:05:38;;;;;;;4.60;0.90;;;10.30;99.90;;;;;;15576182;22;20466;-34
2023/11/09 13:18:50;;;;;;;3.60;1.10;;;10.30;99.90;;;;;;15575248;22;20023;-34
2023/11/09 13:25:32;;;;;;;12.70;2.65;;;10.30;99.90;;;;;;15576683;22;20061;-34
2023/11/09 13:32:06;;;;;;;4.18;0.93;;;10.30;99.90;;;;;;15577647;22;20090;-34
2023/11/09 13:58:25;;;;;;;4.40;1.23;;;10.10;99.90;;;;;;15576837;22;20126;-34
2023/11/09 14:04:41;;;;;;;3.15;0.95;;;10.20;99.90;;;;;;15547964;22;20369;-34
2023/11/09 14:11:01;;;;;;;5.18;1.13;;;10.10;99.90;;;;;;15576807;22;20031;-34
2023/11/09 14:17:33;;;;;;;5.10;1.40;;;10.00;99.90;;;;;;15552235;22;20087;-34
2023/11/09 14:23:52;;;;;;;8.30;1.60;;;9.90;99.90;;;;;;15570417;22;20342;-34
2023/11/09 14:30:09;;;;;;;4.87;2.50;;;9.90;99.90;;;;;;15548020;22;20024;-34
2023/11/09 14:36:58;;;;;;;4.40;1.10;;;9.80;99.90;;;;;;15548915;22;20119;-34
2023/11/09 14:43:22;;;;;;;4.70;1.15;;;9.90;99.90;;;;;;15580222;22;20024;-34
2023/11/09 14:49:53;;;;;;;7.13;1.45;;;9.90;99.90;;;;;;15579715;22;20106;-34
2023/11/09 14:56:13;;;;;;;7.82;1.70;;;9.90;99.90;;;;;;15580618;22;20101;-34
2023/11/09 15:02:37;;;;;;;4.75;1.15;;;9.80;99.90;;;;;;15555172;22;20035;-34
2023/11/09 15:08:55;;;;;;;4.88;1.25;;;9.70;99.90;;;;;;15550841;22;20103;-33
2023/11/09 15:15:16;;;;;;;3.30;1.23;;;9.70;99.90;;;;;;15579689;22;20342;-34
2023/11/09 15:21:41;;;;;;;5.72;1.35;;;9.80;99.90;;;;;;15579220;22;20022;-34
2023/11/09 15:28:10;;;;;;;4.50;1.23;;;9.70;99.90;;;;;;15576053;22;20024;-34
2023/11/09 15:34:35;;;;;;;6.80;1.50;;;9.70;99.90;;;;;;15580551;22;20015;-34
2023/11/09 15:41:09;;;;;;;7.70;1.50;;;9.60;99.90;;;;;;15579329;22;20069;-35
2023/11/09 15:47:48;;;;;;;6.28;1.80;;;9.60;99.90;;;;;;15556453;22;20487;-34
2023/11/09 15:54:28;;;;;;;7.75;1.70;;;9.50;99.90;;;;;;15556114;22;20020;-34
2023/11/09 16:01:09;;;;;;;6.53;1.40;;;9.40;99.90;;;;;;15580592;22;20023;-34
2023/11/09 16:07:54;;;;;;;7.75;1.83;;;9.50;99.90;;;;;;15567655;22;20102;-34
2023/11/09 16:14:37;;;;;;;7.63;1.60;;;9.30;99.90;;;;;;15579257;22;20026;-34
2023/11/09 16:21:22;;;;;;;5.75;1.67;;;9.20;99.90;;;;;;15579778;22;20085;-34
2023/11/09 16:28:12;;;;;;;4.35;1.38;;;9.10;99.90;;;;;;15580201;22;20732;-34
2023/11/09 16:34:59;;;;;;;6.57;1.48;;;9.10;99.90;;;;;;15579435;22;20023;-33
2023/11/09 16:41:53;;;;;;;5.78;1.80;;;9.10;99.90;;;;;;15577136;22;20115;-34
2023/11/09 16:48:38;;;;;;;6.32;1.63;;;9.00;99.90;;;;;;15578141;22;20020;-34
2023/11/09 16:55:21;;;;;;;6.05;2.65;;;8.90;99.90;;;;;;15575473;22;20055;-34
2023/11/09 17:01:52;;;;;;;6.55;1.70;;;8.90;99.90;;;;;;15579881;22;20035;-34
2023/11/09 17:08:26;;;;;;;6.10;1.73;;;8.90;99.90;;;;;;15577292;22;20030;-34
2023/11/09 17:15:07;;;;;;;6.35;2.22;;;8.80;99.90;;;;;;15576167;22;20019;-34
2023/11/09 17:21:45;;;;;;;5.57;1.58;;;8.70;99.90;;;;;;15556239;22;20020;-34
2023/11/09 17:28:32;;;;;;;7.45;1.63;;;8.70;99.90;;;;;;15574703;22;20128;-34
2023/11/09 17:35:14;;;;;;;9.27;1.80;;;8.60;99.90;;;;;;15578912;22;20096;-34
2023/11/09 17:41:42;;;;;;;11.02;2.47;;;8.70;99.90;;;;;;15578747;22;20024;-33
2023/11/09 17:48:34;;;;;;;9.38;2.03;;;8.60;99.90;;;;;;15553425;22;20031;-34
2023/11/09 17:55:19;;;;;;;6.38;1.42;;;8.60;99.90;;;;;;15555298;22;20042;-34
2023/11/09 18:01:35;;;;;;;12.38;1.77;;;8.50;99.90;;;;;;15577411;22;20097;-34
2023/11/09 18:08:01;;;;;;;9.30;1.92;;;8.50;99.90;;;;;;15571069;22;20030;-34
2023/11/09 18:14:42;;;;;;;8.97;1.90;;;8.50;99.90;;;;;;15573431;22;20473;-34
2023/11/09 18:21:21;;;;;;;8.95;1.58;;;8.50;99.90;;;;;;15579550;22;20353;-34
2023/11/09 18:28:07;;;;;;;7.80;1.70;;;8.40;99.90;;;;;;15579202;22;20027;-34
2023/11/09 18:34:50;;;;;;;8.43;1.30;;;8.40;99.90;;;;;;15559211;22;20109;-34
2023/11/09 18:41:26;;;;;;;5.93;1.55;;;8.40;99.90;;;;;;15582798;22;20133;-34
2023/11/09 18:47:58;;;;;;;9.60;1.83;;;8.50;99.90;;;;;;15581735;22;20024;-34
2023/11/09 18:54:25;;;;;;;8.75;1.42;;;8.60;99.90;;;;;;15581138;22;20020;-34
2023/11/09 19:01:05;;;;;;;6.70;1.60;;;8.60;99.90;;;;;;15582249;22;20031;-34
2023/11/09 19:07:38;;;;;;;8.25;1.50;;;8.70;99.90;;;;;;15558597;22;20023;-34
2023/11/09 19:14:14;;;;;;;8.60;1.70;;;8.70;99.90;;;;;;15580198;22;20101;-34
2023/11/09 19:20:51;;;;;;;9.15;1.60;;;8.70;99.90;;;;;;15580492;22;20015;-34
2023/11/09 19:27:17;;;;;;;6.28;1.50;;;8.70;99.90;;;;;;15579915;22;20588;-34
2023/11/09 19:33:57;;;;;;;4.72;1.58;;;8.80;99.90;;;;;;15580569;22;20022;-35
2023/11/09 19:40:32;;;;;;;7.45;1.40;;;8.90;99.90;;;;;;15580373;22;20489;-35
2023/11/09 19:47:18;;;;;;;8.50;1.38;;;9.00;99.90;;;;;;15556539;22;20492;-34
2023/11/09 19:53:50;;;;;;;7.32;1.70;;;8.90;99.90;;;;;;15577500;22;20028;-34
2023/11/09 20:00:21;;;;;;;5.43;1.30;;;9.00;99.90;;;;;;15580165;22;20015;-34
2023/11/09 20:07:03;;;;;;;6.15;1.48;;;9.10;99.90;;;;;;15582101;22;20098;-34
2023/11/09 20:13:24;;;;;;;4.68;1.17;;;9.10;99.90;;;;;;15575913;22;20023;-34
2023/11/09 20:20:05;;;;;;;5.25;1.13;;;9.20;99.90;;;;;;15580565;22;20092;-34
2023/11/09 20:26:35;;;;;;;8.85;1.13;;;9.10;99.90;;;;;;15577707;22;20028;-34
2023/11/09 20:33:01;;;;;;;9.73;1.25;;;9.10;99.90;;;;;;15576534;22;20031;-34
2023/11/09 20:39:50;;;;;;;6.00;1.60;;;9.10;99.90;;;;;;15579524;22;20020;-34
2023/11/09 20:46:28;;;;;;;9.55;1.30;;;9.00;99.90;;;;;;15577021;22;20551;-34
2023/11/09 20:53:07;;;;;;;8.23;2.38;;;9.00;99.90;;;;;;15576967;22;20131;-34
2023/11/09 21:00:08;;;;;;;8.55;1.60;;;9.00;99.90;;;;;;15576019;22;20026;-34
2023/11/09 21:06:55;;;;;;;6.97;1.13;;;9.00;99.90;;;;;;15555990;22;20020;-34
2023/11/09 21:13:42;;;;;;;9.18;1.77;;;9.00;99.90;;;;;;15579903;22;20019;-35
2023/11/09 21:20:22;;;;;;;5.30;1.45;;;8.90;99.90;;;;;;15578580;22;20035;-35
2023/11/09 21:27:14;;;;;;;7.32;1.10;;;8.90;99.90;;;;;;15574570;22;20039;-34
2023/11/09 21:33:57;;;;;;;2.63;0.95;;;8.80;99.90;;;;;;15574336;22;20020;-34
2023/11/09 21:40:42;;;;;;;8.43;1.13;;;8.80;99.90;;;;;;15556036;22;20024;-35
2023/11/09 21:47:29;;;;;;;9.90;0.90;;;8.50;99.90;;;;;;15575947;22;20470;-34
2023/11/09 21:54:21;;;;;;;2.38;0.60;;;8.00;99.90;;;;;;15574500;22;20016;-33
2023/11/09 22:01:14;;;;;;;5.45;0.93;;;7.80;99.90;;;;;;15575936;22;20016;-34
2023/11/09 22:08:01;;;;;;;2.33;0.68;;;7.70;99.90;;;;;;15575516;22;20469;-34
2023/11/09 22:14:48;;;;;;;2.28;0.55;;;7.60;99.90;;;;;;15577248;22;20023;-34
2023/11/09 22:21:39;;;;;;;1.58;0.65;;;7.50;99.90;;;;;;15577208;22;20505;-33
2023/11/09 22:28:28;;;;;;;1.55;0.50;;;7.50;99.90;;;;;;15574815;22;20107;-34
2023/11/09 22:35:12;;;;;;;1.92;0.40;;;7.40;99.90;;;;;;15576390;22;20027;-34
2023/11/09 22:41:57;;;;;;;1.60;0.55;;;7.30;99.90;;;;;;15575546;22;20020;-35
2023/11/09 22:48:55;;;;;;;1.95;0.60;;;7.30;99.90;;;;;;15573935;22;20446;-34
2023/11/09 22:55:39;;;;;;;2.72;0.50;;;7.20;99.90;;;;;;15579166;22;20385;-34
2023/11/09 23:02:22;;;;;;;2.72;0.60;;;7.20;99.90;;;;;;15579912;22;20031;-34
2023/11/09 23:08:58;;;;;;;1.13;0.45;;;7.20;99.90;;;;;;15579054;22;20095;-34
2023/11/09 23:15:35;;;;;;;2.00;0.82;;;7.20;99.90;;;;;;15581941;22;20019;-34
2023/11/09 23:22:14;;;;;;;0.95;0.40;;;7.10;99.90;;;;;;15581844;22;20019;-34
2023/11/09 23:29:04;;;;;;;0.55;0.35;;;7.10;99.90;;;;;;15580288;22;20019;-34
2023/11/09 23:35:46;;;;;;;1.27;0.52;;;7.10;99.90;;;;;;15581119;22;20353;-34
2023/11/09 23:42:26;;;;;;;2.55;0.60;;;7.00;99.90;;;;;;15581153;22;20110;-34
2023/11/09 23:49:12;;;;;;;1.67;0.60;;;7.10;99.90;;;;;;15559024;22;20024;-34
2023/11/09 23:55:53;;;;;;;0.95;0.45;;;7.00;99.90;;;;;;15579673;22;20042;-34
